Share

Summersville, WV

KWVMTNEB2 Elev 2195 ft | 38.14 °N, 80.85 °W | Change Station

Current weather conditions updated 4 seconds ago

Clear
Clear
44.9 °F
Feels Like 45 °F
N
0.0
Wind Variable Wind from North
Gusts 0.0 mph
Sunrise 6:39 AM
Sunset 8:05 PM
Moon Waning Gibbous

Today is forecast to be Warmer than yesterday.

Pressure 30.09 in
Visibility 10.0 miles
Clouds Clear
Windchill 45 °F
Dew Point 30 °F
Humidity 56%
Rainfall 0.00 in
Snow Depth Not available.
UV 0 out of 16
Pollen 10.50 out of 12
Air Quality Not available.
Flu Activity Sporadic
METAR KCRW 210854Z 13003KT 10SM CLR 09/02 A3010 RMK AO2 SLP189 T00890017 55006

More Conditions Fewer Conditions

Pressure 30.09 in
Visibility 10.0 miles
Clouds Clear
Windchill 45 °F
Dew Point 30 °F
Humidity 56%
Rainfall 0.00 in
Snow Depth Not available.
UV 0 out of 16
Pollen 10.50 out of 12
Air Quality Not available.
Flu Activity Sporadic
METAR KCRW 210854Z 13003KT 10SM CLR 09/02 A3010 RMK AO2 SLP189 T00890017 55006

More Conditions Fewer Conditions

10-Day Weather Forecast

Almanac

Astronomy

Apr. 21, 2014 Rise Set
Actual Time 6:39 AM EDT 8:05 PM EDT
Civil Twilight 6:11 AM EDT 8:33 PM EDT
Nautical Twilight 5:38 AM EDT 9:06 PM EDT
Astronomical Twilight 5:03 AM EDT 9:41 PM EDT
Moon 1:33 AM EDT 12:05 PM EDT
Length of Visible Light 14h 21m
Length of Day
13h 26m
Tomorrow will be 2m 16s longer.
Waning Gibbous, 61% of the Moon is Illuminated
Today
Waning Gibbous
Apr 22
Last Quarter
Apr 29
New
May 6
First Quarter
May 14
Full

Today's Extremes

State Highs State Lows

Community

  • Snowy Robin
    Snowy Robin
  • Sun Pillar and Geese
    Sun Pillar and Geese
  • Showers on the Way
    Showers on the Way
  • Easter Morning Fog
    Easter Morning Fog
  • Easter Dance
    Easter Dance

WunderPhotos

Upload Photos

1,703,579 photos uploaded!

WunderBlogs® & News

Nearby

Snow Depth

Station Depth Elevation
No new snow has been reported.

Coastal Water Temperatures

Place Temperature
No Stations Reporting

Earthquake Activity

City Distance Mag. Time & Date
No recent earthquake activity has been reported nearby.
Minimum magnitude displayed is 2.5.

Nearby Weather Stations

Station Location Temp. Windchill Dew Point Humidity Wind Precip. Elev Updated Type
Mt Nebo, WV 44.9 °F 45 °F 30 °F 56% North  at  0.0 mph 0.00 in / hr 2195 ft 5:06 AM EDT Rapid Fire
., Gauley Bridge, WV 48.6 °F 49 °F 36 °F 61% SE  at  0.0 mph 0.00 in / hr 804 ft 5:04 AM EDT Normal
Glen Ferris, WV 48.5 °F 48 °F 38 °F 67% WSW  at  0.0 mph 0.00 in / hr 676 ft 4:01 AM EDT Normal

Show More Stations Show Fewer Stations

What do you think?

We're not finished. Please let us know what you like, what you don't like, and what you are still missing.